sensor_id;sensor_type;location;lat;lon;timestamp;temperature;humidity
68719;DHT22;55696;52.138;5.444;2023-03-31T00:00:16;14.10;66.30
68719;DHT22;55696;52.138;5.444;2023-03-31T00:02:44;14.20;66.50
68719;DHT22;55696;52.138;5.444;2023-03-31T00:05:11;14.00;66.40
68719;DHT22;55696;52.138;5.444;2023-03-31T00:07:43;14.10;66.60
68719;DHT22;55696;52.138;5.444;2023-03-31T00:10:11;14.10;67.20
68719;DHT22;55696;52.138;5.444;2023-03-31T00:12:44;14.10;66.60
68719;DHT22;55696;52.138;5.444;2023-03-31T00:15:12;14.20;67.30
68719;DHT22;55696;52.138;5.444;2023-03-31T00:17:39;14.10;67.20
68719;DHT22;55696;52.138;5.444;2023-03-31T00:20:06;13.90;66.90
68719;DHT22;55696;52.138;5.444;2023-03-31T00:22:38;14.10;67.50
68719;DHT22;55696;52.138;5.444;2023-03-31T00:25:08;14.10;67.60
68719;DHT22;55696;52.138;5.444;2023-03-31T00:27:36;14.00;68.00
68719;DHT22;55696;52.138;5.444;2023-03-31T00:30:04;14.10;67.30
68719;DHT22;55696;52.138;5.444;2023-03-31T00:32:31;14.20;67.70
68719;DHT22;55696;52.138;5.444;2023-03-31T00:34:59;14.10;67.40
68719;DHT22;55696;52.138;5.444;2023-03-31T00:37:28;14.10;67.60
68719;DHT22;55696;52.138;5.444;2023-03-31T00:39:56;14.00;68.00
68719;DHT22;55696;52.138;5.444;2023-03-31T00:42:23;14.20;68.10
68719;DHT22;55696;52.138;5.444;2023-03-31T00:47:51;14.20;69.70
68719;DHT22;55696;52.138;5.444;2023-03-31T00:50:21;14.20;68.60
68719;DHT22;55696;52.138;5.444;2023-03-31T00:52:54;14.20;68.80
68719;DHT22;55696;52.138;5.444;2023-03-31T00:55:29;14.10;69.00
68719;DHT22;55696;52.138;5.444;2023-03-31T00:57:59;14.10;69.10
68719;DHT22;55696;52.138;5.444;2023-03-31T01:00:27;14.20;68.30
68719;DHT22;55696;52.138;5.444;2023-03-31T01:02:57;14.40;67.60
68719;DHT22;55696;52.138;5.444;2023-03-31T01:05:28;14.20;68.70
68719;DHT22;55696;52.138;5.444;2023-03-31T01:07:57;14.20;68.90
68719;DHT22;55696;52.138;5.444;2023-03-31T01:10:25;14.20;68.50
68719;DHT22;55696;52.138;5.444;2023-03-31T01:12:53;14.30;68.10
68719;DHT22;55696;52.138;5.444;2023-03-31T01:15:21;14.20;68.70
68719;DHT22;55696;52.138;5.444;2023-03-31T01:17:49;14.20;68.10
68719;DHT22;55696;52.138;5.444;2023-03-31T01:20:41;14.40;68.50
68719;DHT22;55696;52.138;5.444;2023-03-31T01:42:56;14.20;71.40
68719;DHT22;55696;52.138;5.444;2023-03-31T01:48:06;14.20;69.60
68719;DHT22;55696;52.138;5.444;2023-03-31T01:50:50;14.20;69.70
68719;DHT22;55696;52.138;5.444;2023-03-31T01:56:23;14.20;72.50
68719;DHT22;55696;52.138;5.444;2023-03-31T01:59:02;14.10;72.80
68719;DHT22;55696;52.138;5.444;2023-03-31T02:01:36;14.00;72.90
68719;DHT22;55696;52.138;5.444;2023-03-31T02:04:09;14.00;72.40
68719;DHT22;55696;52.138;5.444;2023-03-31T02:06:40;14.40;72.90
68719;DHT22;55696;52.138;5.444;2023-03-31T02:09:19;14.00;72.50
68719;DHT22;55696;52.138;5.444;2023-03-31T02:11:48;14.10;72.60
68719;DHT22;55696;52.138;5.444;2023-03-31T02:14:20;14.00;72.20
68719;DHT22;55696;52.138;5.444;2023-03-31T02:16:55;14.60;73.10
68719;DHT22;55696;52.138;5.444;2023-03-31T02:19:27;14.20;72.10
68719;DHT22;55696;52.138;5.444;2023-03-31T02:21:56;14.10;72.60
68719;DHT22;55696;52.138;5.444;2023-03-31T02:24:25;14.20;71.60
68719;DHT22;55696;52.138;5.444;2023-03-31T02:27:01;14.20;72.30
68719;DHT22;55696;52.138;5.444;2023-03-31T02:29:29;14.80;72.90
68719;DHT22;55696;52.138;5.444;2023-03-31T02:32:02;14.70;71.10
68719;DHT22;55696;52.138;5.444;2023-03-31T02:34:30;14.30;72.60
68719;DHT22;55696;52.138;5.444;2023-03-31T02:36:57;14.30;70.80
68719;DHT22;55696;52.138;5.444;2023-03-31T02:39:28;14.30;71.20
68719;DHT22;55696;52.138;5.444;2023-03-31T02:41:56;14.30;72.20
68719;DHT22;55696;52.138;5.444;2023-03-31T02:44:24;14.40;70.60
68719;DHT22;55696;52.138;5.444;2023-03-31T02:46:51;14.40;70.70
68719;DHT22;55696;52.138;5.444;2023-03-31T02:49:18;14.50;71.00
68719;DHT22;55696;52.138;5.444;2023-03-31T02:55:14;14.50;72.60
68719;DHT22;55696;52.138;5.444;2023-03-31T03:00:38;14.50;72.30
68719;DHT22;55696;52.138;5.444;2023-03-31T03:06:23;14.40;73.10
68719;DHT22;55696;52.138;5.444;2023-03-31T03:12:23;14.40;72.70
68719;DHT22;55696;52.138;5.444;2023-03-31T03:17:29;14.40;70.50
68719;DHT22;55696;52.138;5.444;2023-03-31T03:19:59;14.70;73.00
68719;DHT22;55696;52.138;5.444;2023-03-31T03:22:27;14.30;72.10
68719;DHT22;55696;52.138;5.444;2023-03-31T03:24:53;14.30;71.30
68719;DHT22;55696;52.138;5.444;2023-03-31T03:27:20;14.20;71.10
68719;DHT22;55696;52.138;5.444;2023-03-31T03:29:50;14.30;70.60
68719;DHT22;55696;52.138;5.444;2023-03-31T03:32:17;14.30;71.30
68719;DHT22;55696;52.138;5.444;2023-03-31T03:34:43;14.20;70.90
68719;DHT22;55696;52.138;5.444;2023-03-31T03:37:10;14.30;71.60
68719;DHT22;55696;52.138;5.444;2023-03-31T03:39:37;14.20;71.20
68719;DHT22;55696;52.138;5.444;2023-03-31T03:42:04;14.20;71.20
68719;DHT22;55696;52.138;5.444;2023-03-31T03:44:31;14.20;71.40
68719;DHT22;55696;52.138;5.444;2023-03-31T03:46:57;14.10;71.30
68719;DHT22;55696;52.138;5.444;2023-03-31T03:49:24;14.10;71.40
68719;DHT22;55696;52.138;5.444;2023-03-31T03:51:51;14.10;71.50
68719;DHT22;55696;52.138;5.444;2023-03-31T03:54:18;14.00;71.60
68719;DHT22;55696;52.138;5.444;2023-03-31T03:56:44;14.00;71.80
68719;DHT22;55696;52.138;5.444;2023-03-31T03:59:11;14.00;72.00
68719;DHT22;55696;52.138;5.444;2023-03-31T04:01:38;14.00;72.10
68719;DHT22;55696;52.138;5.444;2023-03-31T04:04:05;13.90;72.00
68719;DHT22;55696;52.138;5.444;2023-03-31T04:06:32;13.90;72.40
68719;DHT22;55696;52.138;5.444;2023-03-31T04:08:59;14.00;72.00
68719;DHT22;55696;52.138;5.444;2023-03-31T04:11:26;13.90;72.50
68719;DHT22;55696;52.138;5.444;2023-03-31T04:13:53;13.90;72.20
68719;DHT22;55696;52.138;5.444;2023-03-31T04:16:20;13.80;72.10
68719;DHT22;55696;52.138;5.444;2023-03-31T04:18:48;13.90;72.50
68719;DHT22;55696;52.138;5.444;2023-03-31T04:21:15;13.90;72.20
68719;DHT22;55696;52.138;5.444;2023-03-31T04:23:50;14.00;72.30
68719;DHT22;55696;52.138;5.444;2023-03-31T04:26:25;13.90;73.00
68719;DHT22;55696;52.138;5.444;2023-03-31T04:28:57;14.30;73.30
68719;DHT22;55696;52.138;5.444;2023-03-31T04:31:26;13.80;72.80
68719;DHT22;55696;52.138;5.444;2023-03-31T04:33:53;13.80;72.90
68719;DHT22;55696;52.138;5.444;2023-03-31T04:36:21;14.50;73.60
68719;DHT22;55696;52.138;5.444;2023-03-31T04:38:49;13.80;73.10
68719;DHT22;55696;52.138;5.444;2023-03-31T04:41:22;13.80;73.20
68719;DHT22;55696;52.138;5.444;2023-03-31T04:43:49;13.90;73.20
68719;DHT22;55696;52.138;5.444;2023-03-31T04:46:16;13.90;72.00
68719;DHT22;55696;52.138;5.444;2023-03-31T04:48:43;13.90;72.00
68719;DHT22;55696;52.138;5.444;2023-03-31T04:51:10;13.90;72.00
68719;DHT22;55696;52.138;5.444;2023-03-31T04:53:40;13.90;72.50
68719;DHT22;55696;52.138;5.444;2023-03-31T04:56:07;13.80;72.10
68719;DHT22;55696;52.138;5.444;2023-03-31T04:58:35;13.90;72.20
68719;DHT22;55696;52.138;5.444;2023-03-31T05:01:02;13.80;72.50
68719;DHT22;55696;52.138;5.444;2023-03-31T05:03:32;13.80;72.50
68719;DHT22;55696;52.138;5.444;2023-03-31T05:05:59;13.70;72.50
68719;DHT22;55696;52.138;5.444;2023-03-31T05:08:26;13.80;72.60
68719;DHT22;55696;52.138;5.444;2023-03-31T05:10:53;13.80;72.80
68719;DHT22;55696;52.138;5.444;2023-03-31T05:13:19;14.80;73.30
68719;DHT22;55696;52.138;5.444;2023-03-31T05:15:46;13.90;72.90
68719;DHT22;55696;52.138;5.444;2023-03-31T05:18:17;13.90;72.80
68719;DHT22;55696;52.138;5.444;2023-03-31T05:20:43;13.90;73.70
68719;DHT22;55696;52.138;5.444;2023-03-31T05:23:11;13.90;72.60
68719;DHT22;55696;52.138;5.444;2023-03-31T05:25:38;13.90;72.70
68719;DHT22;55696;52.138;5.444;2023-03-31T05:28:05;14.00;72.70
68719;DHT22;55696;52.138;5.444;2023-03-31T05:30:31;13.90;72.70
68719;DHT22;55696;52.138;5.444;2023-03-31T05:32:58;14.10;72.70
68719;DHT22;55696;52.138;5.444;2023-03-31T05:35:25;14.00;72.60
68719;DHT22;55696;52.138;5.444;2023-03-31T05:37:52;13.90;72.20
68719;DHT22;55696;52.138;5.444;2023-03-31T05:40:19;14.50;72.70
68719;DHT22;55696;52.138;5.444;2023-03-31T05:42:45;14.20;72.40
68719;DHT22;55696;52.138;5.444;2023-03-31T05:45:12;14.00;72.70
68719;DHT22;55696;52.138;5.444;2023-03-31T05:47:39;14.00;72.50
68719;DHT22;55696;52.138;5.444;2023-03-31T05:50:06;14.00;72.60
68719;DHT22;55696;52.138;5.444;2023-03-31T05:52:34;14.00;72.80
68719;DHT22;55696;52.138;5.444;2023-03-31T05:55:03;14.70;72.90
68719;DHT22;55696;52.138;5.444;2023-03-31T05:57:30;14.90;73.70
68719;DHT22;55696;52.138;5.444;2023-03-31T05:59:57;13.90;72.60
68719;DHT22;55696;52.138;5.444;2023-03-31T06:02:24;14.00;72.70
68719;DHT22;55696;52.138;5.444;2023-03-31T06:04:50;14.00;72.70
68719;DHT22;55696;52.138;5.444;2023-03-31T06:07:17;14.00;72.60
68719;DHT22;55696;52.138;5.444;2023-03-31T06:09:44;14.00;72.60
68719;DHT22;55696;52.138;5.444;2023-03-31T06:12:11;14.00;72.80
68719;DHT22;55696;52.138;5.444;2023-03-31T06:14:38;14.10;72.50
68719;DHT22;55696;52.138;5.444;2023-03-31T06:17:05;14.10;72.50
68719;DHT22;55696;52.138;5.444;2023-03-31T06:19:33;14.10;72.30
68719;DHT22;55696;52.138;5.444;2023-03-31T06:21:59;14.20;72.20
68719;DHT22;55696;52.138;5.444;2023-03-31T06:24:28;14.60;72.40
68719;DHT22;55696;52.138;5.444;2023-03-31T06:26:54;14.20;72.10
68719;DHT22;55696;52.138;5.444;2023-03-31T06:29:21;14.20;72.00
68719;DHT22;55696;52.138;5.444;2023-03-31T06:31:48;14.30;72.00
68719;DHT22;55696;52.138;5.444;2023-03-31T06:34:15;14.40;71.80
68719;DHT22;55696;52.138;5.444;2023-03-31T06:36:45;14.30;71.40
68719;DHT22;55696;52.138;5.444;2023-03-31T06:39:12;14.20;71.30
68719;DHT22;55696;52.138;5.444;2023-03-31T06:41:39;14.30;71.40
68719;DHT22;55696;52.138;5.444;2023-03-31T06:44:05;14.40;71.20
68719;DHT22;55696;52.138;5.444;2023-03-31T06:46:32;14.40;70.90
68719;DHT22;55696;52.138;5.444;2023-03-31T06:48:59;14.50;70.80
68719;DHT22;55696;52.138;5.444;2023-03-31T06:51:26;14.50;70.70
68719;DHT22;55696;52.138;5.444;2023-03-31T06:53:53;14.50;70.50
68719;DHT22;55696;52.138;5.444;2023-03-31T06:56:19;14.60;70.40
68719;DHT22;55696;52.138;5.444;2023-03-31T06:58:47;14.70;70.10
68719;DHT22;55696;52.138;5.444;2023-03-31T07:01:14;14.70;70.10
68719;DHT22;55696;52.138;5.444;2023-03-31T07:03:41;14.60;69.90
68719;DHT22;55696;52.138;5.444;2023-03-31T07:06:07;14.70;69.90
68719;DHT22;55696;52.138;5.444;2023-03-31T07:08:34;14.70;69.90
68719;DHT22;55696;52.138;5.444;2023-03-31T07:11:01;14.60;69.80
68719;DHT22;55696;52.138;5.444;2023-03-31T07:13:28;15.20;70.00
68719;DHT22;55696;52.138;5.444;2023-03-31T07:15:55;14.90;69.90
68719;DHT22;55696;52.138;5.444;2023-03-31T07:18:23;14.80;69.80
68719;DHT22;55696;52.138;5.444;2023-03-31T07:21:00;14.70;69.80
68719;DHT22;55696;52.138;5.444;2023-03-31T07:23:27;14.80;69.30
68719;DHT22;55696;52.138;5.444;2023-03-31T07:25:54;14.90;69.30
68719;DHT22;55696;52.138;5.444;2023-03-31T07:28:20;14.90;69.10
68719;DHT22;55696;52.138;5.444;2023-03-31T07:30:47;14.90;69.30
68719;DHT22;55696;52.138;5.444;2023-03-31T07:33:14;14.90;69.30
68719;DHT22;55696;52.138;5.444;2023-03-31T07:35:41;14.90;69.50
68719;DHT22;55696;52.138;5.444;2023-03-31T07:38:09;15.00;69.60
68719;DHT22;55696;52.138;5.444;2023-03-31T07:40:37;14.90;70.80
68719;DHT22;55696;52.138;5.444;2023-03-31T07:43:05;14.90;70.50
68719;DHT22;55696;52.138;5.444;2023-03-31T07:45:32;14.90;70.10
68719;DHT22;55696;52.138;5.444;2023-03-31T07:47:59;14.90;70.20
68719;DHT22;55696;52.138;5.444;2023-03-31T07:50:26;15.00;69.60
68719;DHT22;55696;52.138;5.444;2023-03-31T07:52:55;15.00;69.50
68719;DHT22;55696;52.138;5.444;2023-03-31T07:55:22;15.00;69.40
68719;DHT22;55696;52.138;5.444;2023-03-31T07:57:49;15.00;69.10
68719;DHT22;55696;52.138;5.444;2023-03-31T08:00:17;15.00;69.10
68719;DHT22;55696;52.138;5.444;2023-03-31T08:02:44;15.10;69.40
68719;DHT22;55696;52.138;5.444;2023-03-31T08:05:13;15.20;69.10
68719;DHT22;55696;52.138;5.444;2023-03-31T08:07:41;15.10;69.90
68719;DHT22;55696;52.138;5.444;2023-03-31T08:10:18;15.10;70.10
68719;DHT22;55696;52.138;5.444;2023-03-31T08:12:45;15.00;70.20
68719;DHT22;55696;52.138;5.444;2023-03-31T08:15:12;15.00;69.70
68719;DHT22;55696;52.138;5.444;2023-03-31T08:17:39;14.90;69.80
68719;DHT22;55696;52.138;5.444;2023-03-31T08:20:07;15.10;69.60
68719;DHT22;55696;52.138;5.444;2023-03-31T08:22:36;15.30;70.40
68719;DHT22;55696;52.138;5.444;2023-03-31T08:25:04;15.30;70.20
68719;DHT22;55696;52.138;5.444;2023-03-31T08:27:33;15.50;70.10
68719;DHT22;55696;52.138;5.444;2023-03-31T08:29:59;16.30;70.10
68719;DHT22;55696;52.138;5.444;2023-03-31T08:32:31;16.40;69.30
68719;DHT22;55696;52.138;5.444;2023-03-31T08:34:58;15.60;69.40
68719;DHT22;55696;52.138;5.444;2023-03-31T08:37:25;15.80;69.00
68719;DHT22;55696;52.138;5.444;2023-03-31T08:39:54;15.90;69.60
68719;DHT22;55696;52.138;5.444;2023-03-31T08:42:35;15.40;69.70
68719;DHT22;55696;52.138;5.444;2023-03-31T08:47:42;15.50;70.70
68719;DHT22;55696;52.138;5.444;2023-03-31T08:50:15;15.50;70.30
68719;DHT22;55696;52.138;5.444;2023-03-31T08:52:47;15.40;70.50
68719;DHT22;55696;52.138;5.444;2023-03-31T08:55:21;15.60;70.10
68719;DHT22;55696;52.138;5.444;2023-03-31T09:00:46;15.70;68.30
68719;DHT22;55696;52.138;5.444;2023-03-31T09:03:33;15.80;69.80
68719;DHT22;55696;52.138;5.444;2023-03-31T09:06:14;15.80;69.90
68719;DHT22;55696;52.138;5.444;2023-03-31T09:08:43;15.80;70.00
68719;DHT22;55696;52.138;5.444;2023-03-31T09:11:14;15.80;68.00
68719;DHT22;55696;52.138;5.444;2023-03-31T09:14:03;15.90;69.20
68719;DHT22;55696;52.138;5.444;2023-03-31T09:16:56;16.00;70.20
68719;DHT22;55696;52.138;5.444;2023-03-31T09:19:48;15.90;70.00
68719;DHT22;55696;52.138;5.444;2023-03-31T09:22:21;15.90;70.00
68719;DHT22;55696;52.138;5.444;2023-03-31T09:24:59;16.00;69.40
68719;DHT22;55696;52.138;5.444;2023-03-31T09:27:27;16.00;70.00
68719;DHT22;55696;52.138;5.444;2023-03-31T09:30:19;16.10;68.50
68719;DHT22;55696;52.138;5.444;2023-03-31T09:32:50;16.40;69.00
68719;DHT22;55696;52.138;5.444;2023-03-31T09:35:20;16.40;68.40
68719;DHT22;55696;52.138;5.444;2023-03-31T09:37:48;16.50;68.00
68719;DHT22;55696;52.138;5.444;2023-03-31T09:40:18;16.50;67.40
68719;DHT22;55696;52.138;5.444;2023-03-31T09:42:47;16.70;67.80
68719;DHT22;55696;52.138;5.444;2023-03-31T09:45:18;16.70;67.30
68719;DHT22;55696;52.138;5.444;2023-03-31T09:47:49;16.90;66.90
68719;DHT22;55696;52.138;5.444;2023-03-31T09:50:17;16.60;67.20
68719;DHT22;55696;52.138;5.444;2023-03-31T09:52:52;16.60;66.10
68719;DHT22;55696;52.138;5.444;2023-03-31T09:56:03;16.50;67.80
68719;DHT22;55696;52.138;5.444;2023-03-31T09:58:14;16.60;65.70
68719;DHT22;55696;52.138;5.444;2023-03-31T10:00:42;16.60;67.00
68719;DHT22;55696;52.138;5.444;2023-03-31T10:03:13;16.60;66.60
68719;DHT22;55696;52.138;5.444;2023-03-31T10:05:51;16.70;65.90
68719;DHT22;55696;52.138;5.444;2023-03-31T10:10:49;17.00;64.90
68719;DHT22;55696;52.138;5.444;2023-03-31T10:13:19;17.00;65.60
68719;DHT22;55696;52.138;5.444;2023-03-31T10:15:52;17.90;66.10
68719;DHT22;55696;52.138;5.444;2023-03-31T10:18:20;17.20;65.60
68719;DHT22;55696;52.138;5.444;2023-03-31T10:20:51;17.40;64.40
68719;DHT22;55696;52.138;5.444;2023-03-31T10:23:28;17.50;64.70
68719;DHT22;55696;52.138;5.444;2023-03-31T10:25:55;17.80;63.50
68719;DHT22;55696;52.138;5.444;2023-03-31T10:28:22;17.80;62.80
68719;DHT22;55696;52.138;5.444;2023-03-31T10:30:57;18.10;62.40
68719;DHT22;55696;52.138;5.444;2023-03-31T10:33:30;18.00;63.00
68719;DHT22;55696;52.138;5.444;2023-03-31T10:36:20;18.00;61.90
68719;DHT22;55696;52.138;5.444;2023-03-31T10:38:49;18.10;61.80
68719;DHT22;55696;52.138;5.444;2023-03-31T10:41:19;18.00;61.00
68719;DHT22;55696;52.138;5.444;2023-03-31T10:43:54;17.90;61.20
68719;DHT22;55696;52.138;5.444;2023-03-31T10:46:47;17.80;61.60
68719;DHT22;55696;52.138;5.444;2023-03-31T10:49:24;18.10;61.20
68719;DHT22;55696;52.138;5.444;2023-03-31T10:51:56;18.30;60.90
68719;DHT22;55696;52.138;5.444;2023-03-31T10:54:24;18.10;60.30
68719;DHT22;55696;52.138;5.444;2023-03-31T10:56:59;18.00;59.30
68719;DHT22;55696;52.138;5.444;2023-03-31T11:04:50;17.90;60.60
68719;DHT22;55696;52.138;5.444;2023-03-31T11:21:31;17.40;61.00
68719;DHT22;55696;52.138;5.444;2023-03-31T11:24:32;17.40;61.70
68719;DHT22;55696;52.138;5.444;2023-03-31T11:35:45;17.60;61.70
68719;DHT22;55696;52.138;5.444;2023-03-31T11:41:07;17.50;61.90
68719;DHT22;55696;52.138;5.444;2023-03-31T11:43:51;17.40;60.40
68719;DHT22;55696;52.138;5.444;2023-03-31T11:46:23;17.40;61.40
68719;DHT22;55696;52.138;5.444;2023-03-31T11:48:58;17.40;61.70
68719;DHT22;55696;52.138;5.444;2023-03-31T11:51:46;17.50;61.70
68719;DHT22;55696;52.138;5.444;2023-03-31T11:54:22;17.60;61.20
68719;DHT22;55696;52.138;5.444;2023-03-31T11:56:51;17.50;61.40
68719;DHT22;55696;52.138;5.444;2023-03-31T11:59:20;18.10;61.30
68719;DHT22;55696;52.138;5.444;2023-03-31T12:04:44;17.10;62.70
68719;DHT22;55696;52.138;5.444;2023-03-31T12:12:55;16.80;64.30
68719;DHT22;55696;52.138;5.444;2023-03-31T12:15:26;16.60;64.80
68719;DHT22;55696;52.138;5.444;2023-03-31T12:17:59;16.50;65.60
68719;DHT22;55696;52.138;5.444;2023-03-31T12:20:35;16.50;65.10
68719;DHT22;55696;52.138;5.444;2023-03-31T12:23:07;16.40;65.50
68719;DHT22;55696;52.138;5.444;2023-03-31T12:26:09;16.30;65.50
68719;DHT22;55696;52.138;5.444;2023-03-31T12:28:40;16.20;66.30
68719;DHT22;55696;52.138;5.444;2023-03-31T12:31:14;16.10;66.00
68719;DHT22;55696;52.138;5.444;2023-03-31T12:33:48;16.00;66.60
68719;DHT22;55696;52.138;5.444;2023-03-31T12:36:52;15.90;66.60
68719;DHT22;55696;52.138;5.444;2023-03-31T12:42:40;16.00;66.80
68719;DHT22;55696;52.138;5.444;2023-03-31T12:45:29;16.00;67.20
68719;DHT22;55696;52.138;5.444;2023-03-31T12:56:19;15.90;67.60
68719;DHT22;55696;52.138;5.444;2023-03-31T12:58:47;15.90;66.50
68719;DHT22;55696;52.138;5.444;2023-03-31T13:01:21;15.90;66.40
68719;DHT22;55696;52.138;5.444;2023-03-31T13:09:37;16.60;65.00
68719;DHT22;55696;52.138;5.444;2023-03-31T13:11:53;16.80;66.40
68719;DHT22;55696;52.138;5.444;2023-03-31T13:16:51;16.90;65.60
68719;DHT22;55696;52.138;5.444;2023-03-31T13:19:33;16.90;66.10
68719;DHT22;55696;52.138;5.444;2023-03-31T13:22:02;16.80;66.40
68719;DHT22;55696;52.138;5.444;2023-03-31T13:24:30;16.80;65.40
68719;DHT22;55696;52.138;5.444;2023-03-31T13:27:22;17.60;65.40
68719;DHT22;55696;52.138;5.444;2023-03-31T13:29:45;16.60;64.90
68719;DHT22;55696;52.138;5.444;2023-03-31T13:32:21;16.80;64.60
68719;DHT22;55696;52.138;5.444;2023-03-31T13:35:03;16.70;64.40
68719;DHT22;55696;52.138;5.444;2023-03-31T13:38:39;16.70;66.00
68719;DHT22;55696;52.138;5.444;2023-03-31T13:46:56;16.60;66.20
68719;DHT22;55696;52.138;5.444;2023-03-31T13:49:50;16.60;66.30
68719;DHT22;55696;52.138;5.444;2023-03-31T13:58:31;16.60;66.30
68719;DHT22;55696;52.138;5.444;2023-03-31T14:01:29;16.80;65.90
68719;DHT22;55696;52.138;5.444;2023-03-31T14:04:29;16.80;65.40
68719;DHT22;55696;52.138;5.444;2023-03-31T14:09:39;16.80;65.70
68719;DHT22;55696;52.138;5.444;2023-03-31T14:14:46;16.80;66.60
68719;DHT22;55696;52.138;5.444;2023-03-31T14:17:13;16.70;65.00
68719;DHT22;55696;52.138;5.444;2023-03-31T14:26:12;16.40;68.00
68719;DHT22;55696;52.138;5.444;2023-03-31T14:29:00;16.60;67.40
68719;DHT22;55696;52.138;5.444;2023-03-31T14:34:49;17.00;66.30
68719;DHT22;55696;52.138;5.444;2023-03-31T14:37:19;17.10;65.50
68719;DHT22;55696;52.138;5.444;2023-03-31T14:39:51;17.10;64.00
68719;DHT22;55696;52.138;5.444;2023-03-31T14:42:23;17.00;64.60
68719;DHT22;55696;52.138;5.444;2023-03-31T14:44:57;16.90;65.10
68719;DHT22;55696;52.138;5.444;2023-03-31T14:47:26;16.80;65.60
68719;DHT22;55696;52.138;5.444;2023-03-31T14:50:01;16.70;65.30
68719;DHT22;55696;52.138;5.444;2023-03-31T14:52:31;16.50;66.20
68719;DHT22;55696;52.138;5.444;2023-03-31T14:54:59;16.10;66.00
68719;DHT22;55696;52.138;5.444;2023-03-31T14:57:30;16.10;65.90
68719;DHT22;55696;52.138;5.444;2023-03-31T14:59:59;16.00;67.50
68719;DHT22;55696;52.138;5.444;2023-03-31T15:02:33;16.00;67.40
68719;DHT22;55696;52.138;5.444;2023-03-31T15:05:09;16.20;66.90
68719;DHT22;55696;52.138;5.444;2023-03-31T15:07:40;16.50;67.00
68719;DHT22;55696;52.138;5.444;2023-03-31T15:10:12;16.80;64.90
68719;DHT22;55696;52.138;5.444;2023-03-31T15:12:42;16.90;64.60
68719;DHT22;55696;52.138;5.444;2023-03-31T15:15:11;16.80;64.20
68719;DHT22;55696;52.138;5.444;2023-03-31T15:17:40;17.00;64.90
68719;DHT22;55696;52.138;5.444;2023-03-31T15:22:58;16.80;65.40
68719;DHT22;55696;52.138;5.444;2023-03-31T15:25:28;16.70;64.80
68719;DHT22;55696;52.138;5.444;2023-03-31T15:28:04;16.50;65.20
68719;DHT22;55696;52.138;5.444;2023-03-31T15:30:32;16.40;66.00
68719;DHT22;55696;52.138;5.444;2023-03-31T15:33:05;16.30;65.20
68719;DHT22;55696;52.138;5.444;2023-03-31T15:35:45;16.20;66.30
68719;DHT22;55696;52.138;5.444;2023-03-31T15:38:14;16.00;65.10
68719;DHT22;55696;52.138;5.444;2023-03-31T15:40:48;16.00;66.30
68719;DHT22;55696;52.138;5.444;2023-03-31T15:43:26;15.90;66.50
68719;DHT22;55696;52.138;5.444;2023-03-31T15:45:55;15.90;66.20
68719;DHT22;55696;52.138;5.444;2023-03-31T15:48:28;16.40;67.00
68719;DHT22;55696;52.138;5.444;2023-03-31T15:51:06;15.80;67.50
68719;DHT22;55696;52.138;5.444;2023-03-31T15:53:42;15.80;67.00
68719;DHT22;55696;52.138;5.444;2023-03-31T15:59:05;15.80;67.60
68719;DHT22;55696;52.138;5.444;2023-03-31T16:01:36;15.60;67.20
68719;DHT22;55696;52.138;5.444;2023-03-31T16:04:12;15.60;67.90
68719;DHT22;55696;52.138;5.444;2023-03-31T16:06:52;15.50;68.60
68719;DHT22;55696;52.138;5.444;2023-03-31T16:09:38;16.50;69.30
68719;DHT22;55696;52.138;5.444;2023-03-31T16:12:17;15.50;66.50
68719;DHT22;55696;52.138;5.444;2023-03-31T16:14:53;15.40;68.70
68719;DHT22;55696;52.138;5.444;2023-03-31T16:17:35;15.50;68.30
68719;DHT22;55696;52.138;5.444;2023-03-31T16:22:46;15.40;68.40
68719;DHT22;55696;52.138;5.444;2023-03-31T16:25:17;15.30;68.50
68719;DHT22;55696;52.138;5.444;2023-03-31T16:27:50;15.20;68.90
68719;DHT22;55696;52.138;5.444;2023-03-31T16:30:34;15.20;69.60
68719;DHT22;55696;52.138;5.444;2023-03-31T16:35:40;15.10;68.00
68719;DHT22;55696;52.138;5.444;2023-03-31T16:38:08;16.10;70.50
68719;DHT22;55696;52.138;5.444;2023-03-31T16:40:37;15.10;68.90
68719;DHT22;55696;52.138;5.444;2023-03-31T16:45:37;15.00;70.40
68719;DHT22;55696;52.138;5.444;2023-03-31T16:48:04;15.00;68.90
68719;DHT22;55696;52.138;5.444;2023-03-31T16:50:47;14.90;69.00
68719;DHT22;55696;52.138;5.444;2023-03-31T16:53:22;14.90;69.30
68719;DHT22;55696;52.138;5.444;2023-03-31T16:55:49;14.80;70.50
68719;DHT22;55696;52.138;5.444;2023-03-31T16:58:16;14.80;69.50
68719;DHT22;55696;52.138;5.444;2023-03-31T17:00:43;14.80;69.70
68719;DHT22;55696;52.138;5.444;2023-03-31T17:03:11;15.40;70.50
68719;DHT22;55696;52.138;5.444;2023-03-31T17:05:44;14.80;69.90
68719;DHT22;55696;52.138;5.444;2023-03-31T17:08:12;14.90;70.00
68719;DHT22;55696;52.138;5.444;2023-03-31T17:10:40;14.90;70.30
68719;DHT22;55696;52.138;5.444;2023-03-31T17:13:08;14.90;70.20
68719;DHT22;55696;52.138;5.444;2023-03-31T17:15:35;14.70;70.40
68719;DHT22;55696;52.138;5.444;2023-03-31T17:18:03;14.60;70.30
68719;DHT22;55696;52.138;5.444;2023-03-31T17:20:30;14.60;70.20
68719;DHT22;55696;52.138;5.444;2023-03-31T17:22:57;14.50;70.30
68719;DHT22;55696;52.138;5.444;2023-03-31T17:25:24;14.40;70.40
68719;DHT22;55696;52.138;5.444;2023-03-31T17:27:51;14.50;71.00
68719;DHT22;55696;52.138;5.444;2023-03-31T17:30:18;14.60;71.00
68719;DHT22;55696;52.138;5.444;2023-03-31T17:32:45;14.50;70.90
68719;DHT22;55696;52.138;5.444;2023-03-31T17:35:12;14.40;70.90
68719;DHT22;55696;52.138;5.444;2023-03-31T17:37:50;14.30;70.80
68719;DHT22;55696;52.138;5.444;2023-03-31T17:40:20;14.40;72.70
68719;DHT22;55696;52.138;5.444;2023-03-31T17:42:47;14.30;71.70
68719;DHT22;55696;52.138;5.444;2023-03-31T17:45:15;14.40;71.20
68719;DHT22;55696;52.138;5.444;2023-03-31T17:47:42;14.60;71.80
68719;DHT22;55696;52.138;5.444;2023-03-31T17:50:11;14.30;71.30
68719;DHT22;55696;52.138;5.444;2023-03-31T17:52:38;14.30;72.10
68719;DHT22;55696;52.138;5.444;2023-03-31T17:55:06;14.30;71.40
68719;DHT22;55696;52.138;5.444;2023-03-31T17:57:33;14.30;72.10
68719;DHT22;55696;52.138;5.444;2023-03-31T18:00:06;14.30;71.50
68719;DHT22;55696;52.138;5.444;2023-03-31T18:02:36;14.30;73.00
68719;DHT22;55696;52.138;5.444;2023-03-31T18:05:05;14.20;73.00
68719;DHT22;55696;52.138;5.444;2023-03-31T18:07:32;14.30;72.70
68719;DHT22;55696;52.138;5.444;2023-03-31T18:09:59;14.20;71.80
68719;DHT22;55696;52.138;5.444;2023-03-31T18:12:26;14.20;72.00
68719;DHT22;55696;52.138;5.444;2023-03-31T18:14:55;14.10;72.00
68719;DHT22;55696;52.138;5.444;2023-03-31T18:17:22;14.00;72.00
68719;DHT22;55696;52.138;5.444;2023-03-31T18:19:49;14.10;72.30
68719;DHT22;55696;52.138;5.444;2023-03-31T18:22:16;14.00;72.40
68719;DHT22;55696;52.138;5.444;2023-03-31T18:24:43;14.00;72.40